createdAt,value
2018-08-03T00:00:26.525Z,0.00
2018-08-03T00:02:19.348Z,0.00
2018-08-03T00:03:19.320Z,0.00
2018-08-03T00:05:12.235Z,0.00
2018-08-03T00:06:12.215Z,0.00
2018-08-03T00:08:05.031Z,0.00
2018-08-03T00:09:05.011Z,0.00
2018-08-03T00:10:57.825Z,0.00
2018-08-03T00:11:57.789Z,0.00
2018-08-03T00:13:50.618Z,0.00
2018-08-03T00:14:50.583Z,0.00
2018-08-03T00:16:43.396Z,0.00
2018-08-03T00:17:43.364Z,0.00
2018-08-03T00:19:36.199Z,0.00
2018-08-03T00:20:36.154Z,0.00
2018-08-03T00:22:28.974Z,0.00
2018-08-03T00:23:28.942Z,0.00
2018-08-03T00:25:21.785Z,0.00
2018-08-03T00:26:21.732Z,0.00
2018-08-03T00:28:14.569Z,0.00
2018-08-03T00:29:14.534Z,0.00
2018-08-03T00:31:07.360Z,0.00
2018-08-03T00:32:07.308Z,0.00
2018-08-03T00:34:00.154Z,0.00
2018-08-03T00:35:00.104Z,0.00
2018-08-03T00:36:52.911Z,0.00
2018-08-03T00:37:52.890Z,0.00
2018-08-03T00:39:45.731Z,0.00
2018-08-03T00:40:45.680Z,0.00
2018-08-03T00:42:38.519Z,0.00
2018-08-03T00:43:38.470Z,0.00
2018-08-03T00:45:31.290Z,0.00
2018-08-03T00:46:31.263Z,0.00
2018-08-03T00:48:24.091Z,0.00
2018-08-03T00:49:24.048Z,0.00
2018-08-03T00:51:17.875Z,0.00
2018-08-03T00:52:17.830Z,0.00
2018-08-03T00:54:10.662Z,0.00
2018-08-03T00:55:10.628Z,0.00
2018-08-03T00:57:03.484Z,0.00
2018-08-03T00:58:03.435Z,0.00
2018-08-03T00:59:56.255Z,0.00
2018-08-03T01:00:56.226Z,0.00
2018-08-03T01:02:49.065Z,0.00
2018-08-03T01:03:49.015Z,0.00
2018-08-03T01:05:41.837Z,0.00
2018-08-03T01:06:41.814Z,0.00
2018-08-03T01:08:34.641Z,0.00
2018-08-03T01:09:34.590Z,0.00
2018-08-03T01:11:27.426Z,0.00
2018-08-03T01:12:27.387Z,0.00
2018-08-03T01:14:20.215Z,0.00
2018-08-03T01:15:20.167Z,0.00
2018-08-03T01:17:12.998Z,0.00
2018-08-03T01:18:12.967Z,0.00
2018-08-03T01:20:05.769Z,0.00
2018-08-03T01:21:05.751Z,0.00
2018-08-03T01:22:58.572Z,0.00
2018-08-03T01:23:58.526Z,0.00
2018-08-03T01:25:51.342Z,0.00
2018-08-03T01:26:51.321Z,0.00
2018-08-03T01:28:44.156Z,0.00
2018-08-03T01:29:44.107Z,0.00
2018-08-03T01:31:36.928Z,0.00
2018-08-03T01:32:36.893Z,0.00
2018-08-03T01:34:29.718Z,0.00
2018-08-03T01:35:29.676Z,0.00
2018-08-03T01:37:22.492Z,0.00
2018-08-03T01:38:22.462Z,0.00
2018-08-03T01:40:15.292Z,0.00
2018-08-03T01:41:15.254Z,0.00
2018-08-03T01:43:08.067Z,0.00
2018-08-03T01:44:08.053Z,0.00
2018-08-03T01:46:00.877Z,0.00
2018-08-03T01:47:00.835Z,0.00
2018-08-03T01:48:53.662Z,0.00
2018-08-03T01:49:53.677Z,0.00
2018-08-03T01:51:46.437Z,0.00
2018-08-03T01:52:46.429Z,0.00
2018-08-03T01:54:39.247Z,0.00
2018-08-03T01:55:39.202Z,0.00
2018-08-03T01:57:32.010Z,0.00
2018-08-03T01:58:31.982Z,0.00
2018-08-03T02:00:24.818Z,0.00
2018-08-03T02:01:24.774Z,0.00
2018-08-03T02:03:17.613Z,0.00
2018-08-03T02:04:17.566Z,0.00
2018-08-03T02:06:10.405Z,0.00
2018-08-03T02:07:10.354Z,0.00
2018-08-03T02:09:03.164Z,0.00
2018-08-03T02:10:03.120Z,0.00
2018-08-03T02:11:55.960Z,0.00
2018-08-03T02:12:55.919Z,0.00
2018-08-03T02:14:48.743Z,0.00
2018-08-03T02:15:48.694Z,0.00
2018-08-03T02:17:41.520Z,0.00
2018-08-03T02:18:41.484Z,0.00
2018-08-03T02:20:34.324Z,0.00
2018-08-03T02:21:34.270Z,0.00
2018-08-03T02:23:27.085Z,0.00
2018-08-03T02:24:27.058Z,0.00
2018-08-03T02:26:19.890Z,0.00
2018-08-03T02:27:19.850Z,0.00
2018-08-03T02:29:12.665Z,0.00
2018-08-03T02:30:12.641Z,0.00
2018-08-03T02:32:05.468Z,0.00
2018-08-03T02:33:05.432Z,0.00
2018-08-03T02:34:58.266Z,0.00
2018-08-03T02:35:58.205Z,0.00
2018-08-03T02:37:51.039Z,0.00
2018-08-03T02:38:51.013Z,0.00
2018-08-03T02:40:43.834Z,0.00
2018-08-03T02:41:43.799Z,0.00
2018-08-03T02:43:36.598Z,0.00
2018-08-03T02:44:36.574Z,0.00
2018-08-03T02:46:29.416Z,0.00
2018-08-03T02:47:29.380Z,0.00
2018-08-03T02:49:22.186Z,0.00
2018-08-03T02:50:22.151Z,0.00
2018-08-03T02:52:14.984Z,0.00
2018-08-03T02:53:14.941Z,0.00
2018-08-03T02:55:07.760Z,0.00
2018-08-03T02:56:07.735Z,0.00
2018-08-03T02:58:00.548Z,0.00
2018-08-03T02:59:00.512Z,0.00
2018-08-03T03:00:53.334Z,0.00
2018-08-03T03:01:53.295Z,0.00
2018-08-03T03:03:46.120Z,0.00
2018-08-03T03:04:46.095Z,0.00
2018-08-03T03:06:38.910Z,0.00
2018-08-03T03:07:38.865Z,0.00
2018-08-03T03:09:31.697Z,0.00
2018-08-03T03:10:31.651Z,0.00
2018-08-03T03:12:24.517Z,0.00
2018-08-03T03:13:24.446Z,0.00
2018-08-03T03:15:17.255Z,0.00
2018-08-03T03:16:17.227Z,0.00
2018-08-03T03:18:10.066Z,0.00
2018-08-03T03:19:10.007Z,0.00
2018-08-03T03:21:02.820Z,0.00
2018-08-03T03:22:02.791Z,0.00
2018-08-03T03:23:55.615Z,0.00
2018-08-03T03:24:55.577Z,0.00
2018-08-03T03:26:48.395Z,0.00
2018-08-03T03:27:48.353Z,0.00
2018-08-03T03:29:41.189Z,0.00
2018-08-03T03:30:41.151Z,0.00
2018-08-03T03:32:33.988Z,0.00
2018-08-03T03:33:33.975Z,0.00
2018-08-03T03:35:26.786Z,0.00
2018-08-03T03:36:26.743Z,0.00
2018-08-03T03:38:19.546Z,0.00
2018-08-03T03:39:19.523Z,0.00
2018-08-03T03:41:12.348Z,0.00
2018-08-03T03:42:12.313Z,0.00
2018-08-03T03:44:05.147Z,0.00
2018-08-03T03:45:05.102Z,0.00
2018-08-03T03:46:57.907Z,0.00
2018-08-03T03:47:57.882Z,0.00
2018-08-03T03:49:50.829Z,0.00
2018-08-03T03:50:50.661Z,0.00
2018-08-03T03:52:43.483Z,0.00
2018-08-03T03:53:43.447Z,0.00
2018-08-03T03:55:36.264Z,0.00
2018-08-03T03:56:36.236Z,0.00
2018-08-03T03:58:29.047Z,0.00
2018-08-03T03:59:29.010Z,0.00
2018-08-03T04:01:21.860Z,0.00
2018-08-03T04:02:21.798Z,0.00
2018-08-03T04:04:14.612Z,0.00
2018-08-03T04:05:14.597Z,0.00
2018-08-03T04:07:07.426Z,0.00
2018-08-03T04:08:07.377Z,0.00
2018-08-03T04:10:00.208Z,0.00
2018-08-03T04:11:00.297Z,0.00
2018-08-03T04:12:52.978Z,0.00
2018-08-03T04:13:52.949Z,0.00
2018-08-03T04:15:45.770Z,0.00
2018-08-03T04:16:45.723Z,0.00
2018-08-03T04:18:38.543Z,0.00
2018-08-03T04:19:38.613Z,0.00
2018-08-03T04:21:31.347Z,0.00
2018-08-03T04:22:31.299Z,0.00
2018-08-03T04:24:24.104Z,0.00
2018-08-03T04:25:24.091Z,0.00
2018-08-03T04:27:16.895Z,5.63
2018-08-03T04:28:16.859Z,5.63
2018-08-03T04:30:09.724Z,5.63
2018-08-03T04:31:09.658Z,5.63
2018-08-03T04:33:02.457Z,5.63
2018-08-03T04:34:02.434Z,5.63
2018-08-03T04:35:55.264Z,5.63
2018-08-03T04:36:55.216Z,5.63
2018-08-03T04:38:48.023Z,5.63
2018-08-03T04:39:47.993Z,5.63
2018-08-03T04:41:40.825Z,5.63
2018-08-03T04:42:40.778Z,5.63
2018-08-03T04:44:33.608Z,5.63
2018-08-03T04:45:33.560Z,5.63
2018-08-03T04:47:26.394Z,5.63
2018-08-03T04:48:26.359Z,5.63
2018-08-03T04:50:19.176Z,5.63
2018-08-03T04:51:19.140Z,5.63
2018-08-03T04:53:11.959Z,11.25
2018-08-03T04:54:11.914Z,11.25
2018-08-03T04:56:04.741Z,11.25
2018-08-03T04:57:04.707Z,11.25
2018-08-03T04:58:57.519Z,11.25
2018-08-03T04:59:57.488Z,11.25
2018-08-03T05:01:50.322Z,11.25
2018-08-03T05:02:50.262Z,11.25
2018-08-03T05:04:43.110Z,11.25
2018-08-03T05:05:43.061Z,11.25
2018-08-03T05:07:35.910Z,11.25
2018-08-03T05:08:35.854Z,11.25
2018-08-03T05:10:28.672Z,11.25
2018-08-03T05:11:28.636Z,11.25
2018-08-03T05:13:21.469Z,11.25
2018-08-03T05:14:21.415Z,11.25
2018-08-03T05:16:14.240Z,11.25
2018-08-03T05:17:14.222Z,11.25
2018-08-03T05:19:07.038Z,11.25
2018-08-03T05:20:06.987Z,11.25
2018-08-03T05:21:59.828Z,11.25
2018-08-03T05:22:59.789Z,16.88
2018-08-03T05:24:52.607Z,16.88
2018-08-03T05:25:52.570Z,16.88
2018-08-03T05:27:45.382Z,16.88
2018-08-03T05:28:45.351Z,16.88
2018-08-03T05:30:38.180Z,16.88
2018-08-03T05:31:38.133Z,16.88
2018-08-03T05:33:30.957Z,16.88
2018-08-03T05:34:30.926Z,16.88
2018-08-03T05:36:23.804Z,16.88
2018-08-03T05:37:23.702Z,16.88
2018-08-03T05:39:16.521Z,16.88
2018-08-03T05:40:16.477Z,16.88
2018-08-03T05:42:09.300Z,16.88
2018-08-03T05:43:09.258Z,16.88
2018-08-03T05:45:02.112Z,16.88
2018-08-03T05:46:02.047Z,16.88
2018-08-03T05:47:54.878Z,16.88
2018-08-03T05:48:54.838Z,16.88
2018-08-03T05:50:47.675Z,16.88
2018-08-03T05:51:47.631Z,16.88
2018-08-03T05:53:40.463Z,16.88
2018-08-03T05:54:40.432Z,16.88
2018-08-03T05:56:33.258Z,22.50
2018-08-03T05:57:33.216Z,22.50
2018-08-03T05:59:26.046Z,22.50
2018-08-03T06:00:25.997Z,22.50
2018-08-03T06:02:18.819Z,22.50
2018-08-03T06:03:18.787Z,22.50
2018-08-03T06:05:11.611Z,22.50
2018-08-03T06:06:11.582Z,22.50
2018-08-03T06:08:04.434Z,22.50
2018-08-03T06:09:04.372Z,22.50
2018-08-03T06:10:57.223Z,22.50
2018-08-03T06:11:57.171Z,22.50
2018-08-03T06:13:50.002Z,22.50
2018-08-03T06:14:49.961Z,22.50
2018-08-03T06:16:42.772Z,22.50
2018-08-03T06:17:42.738Z,22.50
2018-08-03T06:19:35.574Z,22.50
2018-08-03T06:20:35.568Z,22.50
2018-08-03T06:22:28.337Z,22.50
2018-08-03T06:23:28.307Z,22.50
2018-08-03T06:25:21.147Z,22.50
2018-08-03T06:26:21.099Z,22.50
2018-08-03T06:28:13.937Z,22.50
2018-08-03T06:29:13.893Z,22.50
2018-08-03T06:31:06.735Z,28.13
2018-08-03T06:32:06.684Z,28.13
2018-08-03T06:33:59.507Z,28.13
2018-08-03T06:34:59.477Z,28.13
2018-08-03T06:36:52.318Z,28.13
2018-08-03T06:37:52.262Z,28.13
2018-08-03T06:39:45.599Z,28.13
2018-08-03T06:40:45.558Z,28.13
2018-08-03T06:42:38.378Z,28.13
2018-08-03T06:43:38.337Z,28.13
2018-08-03T06:45:31.163Z,28.13
2018-08-03T06:46:31.134Z,28.13
2018-08-03T06:48:24.018Z,28.13
2018-08-03T06:49:23.918Z,28.13
2018-08-03T06:51:16.749Z,28.13
2018-08-03T06:52:16.706Z,28.13
2018-08-03T06:54:10.041Z,28.13
2018-08-03T06:55:10.016Z,28.13
2018-08-03T06:57:02.809Z,28.13
2018-08-03T06:58:02.784Z,28.13
2018-08-03T06:59:56.103Z,28.13
2018-08-03T07:00:56.061Z,28.13
2018-08-03T07:02:48.930Z,33.75
2018-08-03T07:03:48.854Z,33.75
2018-08-03T07:05:41.690Z,33.75
2018-08-03T07:06:41.660Z,33.75
2018-08-03T07:08:34.501Z,33.75
2018-08-03T07:09:34.436Z,33.75
2018-08-03T07:11:27.260Z,33.75
2018-08-03T07:12:27.232Z,33.75
2018-08-03T07:14:20.059Z,33.75
2018-08-03T07:15:20.016Z,33.75
2018-08-03T07:17:12.831Z,33.75
2018-08-03T07:18:12.805Z,33.75
2018-08-03T07:20:06.204Z,33.75
2018-08-03T07:21:06.107Z,33.75
2018-08-03T07:22:59.410Z,33.75
2018-08-03T07:23:59.367Z,33.75
2018-08-03T07:25:52.231Z,39.38
2018-08-03T07:26:52.160Z,39.38
2018-08-03T07:28:44.997Z,39.38
2018-08-03T07:29:44.945Z,39.38
2018-08-03T07:31:37.815Z,39.38
2018-08-03T07:32:37.735Z,39.38
2018-08-03T07:34:30.573Z,39.38
2018-08-03T07:35:30.535Z,39.38
2018-08-03T07:37:23.367Z,39.38
2018-08-03T07:38:23.316Z,39.38
2018-08-03T07:40:16.137Z,39.38
2018-08-03T07:41:16.107Z,39.38
2018-08-03T07:43:08.995Z,39.38
2018-08-03T07:44:08.900Z,39.38
2018-08-03T07:46:01.737Z,45.00
2018-08-03T07:47:01.705Z,45.00
2018-08-03T07:48:54.522Z,45.00
2018-08-03T07:49:54.502Z,45.00
2018-08-03T07:51:47.820Z,45.00
2018-08-03T07:52:47.787Z,45.00
2018-08-03T07:54:40.597Z,45.00
2018-08-03T07:55:40.573Z,45.00
2018-08-03T07:57:33.427Z,45.00
2018-08-03T07:58:33.375Z,45.00
2018-08-03T08:00:26.177Z,45.00
2018-08-03T08:01:26.146Z,45.00
2018-08-03T08:03:19.027Z,50.63
2018-08-03T08:04:18.978Z,50.63
2018-08-03T08:06:11.784Z,50.63
2018-08-03T08:07:11.741Z,50.63
2018-08-03T08:09:05.067Z,50.63
2018-08-03T08:10:05.026Z,50.63
2018-08-03T08:11:57.838Z,50.63
2018-08-03T08:12:57.816Z,50.63
2018-08-03T08:14:50.639Z,50.63
2018-08-03T08:15:50.613Z,50.63
2018-08-03T08:17:43.438Z,50.63
2018-08-03T08:18:43.400Z,50.63
2018-08-03T08:20:36.222Z,50.63
2018-08-03T08:21:36.197Z,56.25
2018-08-03T08:23:29.040Z,56.25
2018-08-03T08:24:28.988Z,56.25
2018-08-03T08:26:21.822Z,56.25
2018-08-03T08:27:21.786Z,56.25
2018-08-03T08:29:14.622Z,56.25
2018-08-03T08:30:14.586Z,56.25
2018-08-03T08:32:07.406Z,56.25
2018-08-03T08:33:07.378Z,56.25
2018-08-03T08:35:00.254Z,56.25
2018-08-03T08:36:00.192Z,56.25
2018-08-03T08:37:52.998Z,56.25
2018-08-03T08:38:52.968Z,56.25
2018-08-03T08:40:46.310Z,61.88
2018-08-03T08:41:46.275Z,61.88
2018-08-03T08:43:39.665Z,61.88
2018-08-03T08:44:39.567Z,61.88
2018-08-03T08:46:32.389Z,61.88
2018-08-03T08:47:32.369Z,61.88
2018-08-03T08:49:25.708Z,61.88
2018-08-03T08:50:25.704Z,61.88
2018-08-03T08:52:18.507Z,61.88
2018-08-03T08:53:18.496Z,61.88
2018-08-03T08:55:11.292Z,67.50
2018-08-03T08:56:11.257Z,67.50
2018-08-03T08:58:04.569Z,67.50
2018-08-03T08:59:04.547Z,67.50
2018-08-03T09:00:57.929Z,67.50
2018-08-03T09:01:57.841Z,67.50
2018-08-03T09:03:51.159Z,67.50
2018-08-03T09:04:51.140Z,67.50
2018-08-03T09:06:44.008Z,67.50
2018-08-03T09:07:43.976Z,67.50
2018-08-03T09:09:36.764Z,73.13
2018-08-03T09:10:36.754Z,73.13
2018-08-03T09:12:30.094Z,73.13
2018-08-03T09:13:30.042Z,73.13
2018-08-03T09:15:23.356Z,73.13
2018-08-03T09:16:23.325Z,73.13
2018-08-03T09:18:16.181Z,73.13
2018-08-03T09:19:16.135Z,73.13
2018-08-03T09:21:08.962Z,73.13
2018-08-03T09:22:08.988Z,78.75
2018-08-03T09:24:01.770Z,78.75
2018-08-03T09:25:01.729Z,78.75
2018-08-03T09:26:54.570Z,78.75
2018-08-03T09:27:54.525Z,78.75
2018-08-03T09:29:47.864Z,78.75
2018-08-03T09:30:47.832Z,78.75
2018-08-03T09:32:40.667Z,78.75
2018-08-03T09:33:40.622Z,78.75
2018-08-03T09:35:33.486Z,78.75
2018-08-03T09:36:33.473Z,67.50
2018-08-03T09:38:26.281Z,73.13
2018-08-03T09:39:26.246Z,73.13
2018-08-03T09:41:19.082Z,73.13
2018-08-03T09:42:19.050Z,73.13
2018-08-03T09:44:11.897Z,73.13
2018-08-03T09:45:11.846Z,73.13
2018-08-03T09:47:04.692Z,73.13
2018-08-03T09:48:04.649Z,73.13
2018-08-03T09:49:57.481Z,73.13
2018-08-03T09:50:57.451Z,73.13
2018-08-03T09:52:50.282Z,73.13
2018-08-03T09:53:50.246Z,73.13
2018-08-03T09:55:43.072Z,73.13
2018-08-03T09:56:43.054Z,78.75
2018-08-03T09:58:35.886Z,78.75
2018-08-03T09:59:35.855Z,84.38
2018-08-03T10:01:29.162Z,163.13
2018-08-03T10:02:29.148Z,258.75
2018-08-03T10:04:21.996Z,371.25
2018-08-03T10:05:21.946Z,393.75
2018-08-03T10:07:14.789Z,393.75
2018-08-03T10:08:14.751Z,405.00
2018-08-03T10:10:07.577Z,405.00
2018-08-03T10:11:07.557Z,405.00
2018-08-03T10:13:00.412Z,405.00
2018-08-03T10:14:00.368Z,410.63
2018-08-03T10:15:53.203Z,410.63
2018-08-03T10:16:53.189Z,416.25
2018-08-03T10:18:46.031Z,416.25
2018-08-03T10:19:45.997Z,416.25
2018-08-03T10:21:38.844Z,427.50
2018-08-03T10:22:38.816Z,421.88
2018-08-03T10:24:31.678Z,427.50
2018-08-03T10:25:31.648Z,427.50
2018-08-03T10:27:24.483Z,427.50
2018-08-03T10:28:24.462Z,427.50
2018-08-03T10:30:17.317Z,427.50
2018-08-03T10:31:17.288Z,427.50
2018-08-03T10:33:10.137Z,427.50
2018-08-03T10:34:10.102Z,427.50
2018-08-03T10:36:02.973Z,421.88
2018-08-03T10:37:02.951Z,433.13
2018-08-03T10:38:55.788Z,433.13
2018-08-03T10:39:55.761Z,427.50
2018-08-03T10:41:49.129Z,433.13
2018-08-03T10:42:49.197Z,444.38
2018-08-03T10:44:42.054Z,438.75
2018-08-03T10:45:41.924Z,433.13
2018-08-03T10:47:34.778Z,427.50
2018-08-03T10:48:34.809Z,427.50
2018-08-03T10:50:27.652Z,427.50
2018-08-03T10:51:27.588Z,427.50
2018-08-03T10:53:20.433Z,427.50
2018-08-03T10:54:20.434Z,433.13
2018-08-03T10:56:13.263Z,421.88
2018-08-03T10:57:13.243Z,421.88
2018-08-03T10:59:06.588Z,416.25
2018-08-03T11:00:06.576Z,416.25
2018-08-03T11:01:59.430Z,405.00
2018-08-03T11:02:59.414Z,405.00
2018-08-03T11:04:52.247Z,410.63
2018-08-03T11:05:52.232Z,421.88
2018-08-03T11:07:45.090Z,433.13
2018-08-03T11:08:45.065Z,444.38
2018-08-03T11:10:38.434Z,444.38
2018-08-03T11:11:38.405Z,444.38
2018-08-03T11:13:31.309Z,444.38
2018-08-03T11:14:31.239Z,444.38
2018-08-03T11:16:24.115Z,450.00
2018-08-03T11:17:24.073Z,444.38
2018-08-03T11:19:16.943Z,444.38
2018-08-03T11:20:16.905Z,444.38
2018-08-03T11:22:09.745Z,450.00
2018-08-03T11:23:09.742Z,444.38
2018-08-03T11:25:02.604Z,450.00
2018-08-03T11:26:02.575Z,444.38
2018-08-03T11:27:55.435Z,438.75
2018-08-03T11:28:55.418Z,438.75
2018-08-03T11:30:48.287Z,438.75
2018-08-03T11:31:48.256Z,444.38
2018-08-03T11:33:41.584Z,450.00
2018-08-03T11:34:41.579Z,450.00
2018-08-03T11:36:34.932Z,450.00
2018-08-03T11:37:34.905Z,450.00
2018-08-03T11:39:27.750Z,433.13
2018-08-03T11:40:27.739Z,421.88
2018-08-03T11:42:20.639Z,421.88
2018-08-03T11:43:20.565Z,438.75
2018-08-03T11:45:13.415Z,438.75
2018-08-03T11:46:13.397Z,433.13
2018-08-03T11:48:06.264Z,438.75
2018-08-03T11:49:06.235Z,450.00
2018-08-03T11:50:59.081Z,433.13
2018-08-03T11:51:59.072Z,438.75
2018-08-03T11:53:51.933Z,450.00
2018-08-03T11:54:51.900Z,450.00
2018-08-03T11:56:44.756Z,455.63
2018-08-03T11:57:44.734Z,450.00
2018-08-03T11:59:37.608Z,433.13
2018-08-03T12:00:37.561Z,427.50
2018-08-03T12:02:30.921Z,343.13
2018-08-03T12:03:30.897Z,371.25
2018-08-03T12:05:24.244Z,416.25
2018-08-03T12:06:24.246Z,405.00
2018-08-03T12:08:17.082Z,399.38
2018-08-03T12:09:17.046Z,410.63
2018-08-03T12:11:10.410Z,393.75
2018-08-03T12:12:10.371Z,399.38
2018-08-03T12:14:03.226Z,410.63
2018-08-03T12:15:03.207Z,405.00
2018-08-03T12:16:56.061Z,410.63
2018-08-03T12:17:56.084Z,421.88
2018-08-03T12:19:49.393Z,410.63
2018-08-03T12:20:49.363Z,421.88
2018-08-03T12:22:42.227Z,416.25
2018-08-03T12:23:42.223Z,416.25
2018-08-03T12:25:35.057Z,421.88
2018-08-03T12:26:35.038Z,427.50
2018-08-03T12:28:27.883Z,421.88
2018-08-03T12:29:27.867Z,427.50
2018-08-03T12:31:20.772Z,421.88
2018-08-03T12:32:20.686Z,416.25
2018-08-03T12:34:13.550Z,421.88
2018-08-03T12:35:13.978Z,410.63
2018-08-03T12:37:06.427Z,405.00
2018-08-03T12:38:06.383Z,405.00
2018-08-03T12:39:59.713Z,405.00
2018-08-03T12:40:59.703Z,399.38
2018-08-03T12:42:53.028Z,399.38
2018-08-03T12:43:53.017Z,399.38
2018-08-03T12:45:45.862Z,399.38
2018-08-03T12:46:45.844Z,393.75
2018-08-03T12:48:38.704Z,393.75
2018-08-03T12:49:38.658Z,393.75
2018-08-03T12:51:32.068Z,393.75
2018-08-03T12:52:32.014Z,393.75
2018-08-03T12:54:25.374Z,388.13
2018-08-03T12:55:25.334Z,388.13
2018-08-03T12:57:18.668Z,382.50
2018-08-03T12:58:18.663Z,382.50
2018-08-03T13:00:11.525Z,376.88
2018-08-03T13:01:11.499Z,371.25
2018-08-03T13:03:04.347Z,365.63
2018-08-03T13:04:04.319Z,360.00
2018-08-03T13:05:57.673Z,348.75
2018-08-03T13:06:57.653Z,343.13
2018-08-03T13:08:50.492Z,331.88
2018-08-03T13:09:50.477Z,331.88
2018-08-03T13:11:43.352Z,331.88
2018-08-03T13:12:43.338Z,331.88
2018-08-03T13:14:36.648Z,326.25
2018-08-03T13:15:36.640Z,326.25
2018-08-03T13:17:29.494Z,320.63
2018-08-03T13:18:29.472Z,320.63
2018-08-03T13:20:22.329Z,320.63
2018-08-03T13:21:22.328Z,326.25
2018-08-03T13:23:15.143Z,315.00
2018-08-03T13:24:15.129Z,315.00
2018-08-03T13:26:07.990Z,309.38
2018-08-03T13:27:07.956Z,309.38
2018-08-03T13:29:01.305Z,303.75
2018-08-03T13:30:01.291Z,303.75
2018-08-03T13:31:54.146Z,298.13
2018-08-03T13:32:54.105Z,298.13
2018-08-03T13:34:46.961Z,298.13
2018-08-03T13:35:46.960Z,298.13
2018-08-03T13:37:39.813Z,298.13
2018-08-03T13:38:39.786Z,292.50
2018-08-03T13:40:32.636Z,292.50
2018-08-03T13:41:32.610Z,292.50
2018-08-03T13:43:25.468Z,286.88
2018-08-03T13:44:25.445Z,286.88
2018-08-03T13:46:18.315Z,281.25
2018-08-03T13:47:18.267Z,281.25
2018-08-03T13:49:11.110Z,281.25
2018-08-03T13:50:11.110Z,281.25
2018-08-03T13:52:03.964Z,270.00
2018-08-03T13:53:03.945Z,270.00
2018-08-03T13:54:56.795Z,264.38
2018-08-03T13:55:56.771Z,258.75
2018-08-03T13:57:49.677Z,264.38
2018-08-03T13:58:49.608Z,258.75
2018-08-03T14:00:42.475Z,258.75
2018-08-03T14:01:42.451Z,258.75
2018-08-03T14:03:35.796Z,258.75
2018-08-03T14:04:35.787Z,258.75
2018-08-03T14:06:28.639Z,264.38
2018-08-03T14:07:28.612Z,258.75
2018-08-03T14:09:21.482Z,253.13
2018-08-03T14:10:21.442Z,258.75
2018-08-03T14:12:14.308Z,253.13
2018-08-03T14:13:14.281Z,253.13
2018-08-03T14:15:07.129Z,247.50
2018-08-03T14:16:07.095Z,247.50
2018-08-03T14:17:59.966Z,247.50
2018-08-03T14:18:59.931Z,247.50
2018-08-03T14:20:52.773Z,247.50
2018-08-03T14:21:52.765Z,241.88
2018-08-03T14:23:46.123Z,236.25
2018-08-03T14:24:46.092Z,236.25
2018-08-03T14:26:38.927Z,230.63
2018-08-03T14:27:38.911Z,230.63
2018-08-03T14:29:31.796Z,230.63
2018-08-03T14:30:31.752Z,230.63
2018-08-03T14:32:24.598Z,225.00
2018-08-03T14:33:24.572Z,225.00
2018-08-03T14:35:17.436Z,225.00
2018-08-03T14:36:17.416Z,225.00
2018-08-03T14:38:10.336Z,225.00
2018-08-03T14:39:10.247Z,219.38
2018-08-03T14:41:03.618Z,225.00
2018-08-03T14:42:03.603Z,219.38
2018-08-03T14:43:57.916Z,213.75
2018-08-03T14:44:57.901Z,219.38
2018-08-03T14:46:50.744Z,213.75
2018-08-03T14:47:50.723Z,213.75
2018-08-03T14:49:43.576Z,208.13
2018-08-03T14:50:43.544Z,208.13
2018-08-03T14:52:36.422Z,202.50
2018-08-03T14:53:36.403Z,202.50
2018-08-03T14:55:29.321Z,196.88
2018-08-03T14:56:29.234Z,196.88
2018-08-03T14:58:22.069Z,196.88
2018-08-03T14:59:22.052Z,191.25
2018-08-03T15:01:14.911Z,185.63
2018-08-03T15:02:14.893Z,185.63
2018-08-03T15:04:07.729Z,191.25
2018-08-03T15:05:07.729Z,196.88
2018-08-03T15:07:00.569Z,202.50
2018-08-03T15:08:00.555Z,202.50
2018-08-03T15:09:53.389Z,202.50
2018-08-03T15:10:53.368Z,202.50
2018-08-03T15:12:46.228Z,202.50
2018-08-03T15:13:46.182Z,202.50
2018-08-03T15:15:39.051Z,196.88
2018-08-03T15:16:39.028Z,208.13
2018-08-03T15:18:31.874Z,202.50
2018-08-03T15:19:31.842Z,202.50
2018-08-03T15:21:24.752Z,208.13
2018-08-03T15:22:24.669Z,208.13
2018-08-03T15:24:17.534Z,208.13
2018-08-03T15:25:17.483Z,208.13
2018-08-03T15:27:10.364Z,208.13
2018-08-03T15:28:10.333Z,213.75
2018-08-03T15:30:03.162Z,213.75
2018-08-03T15:31:03.158Z,219.38
2018-08-03T15:32:56.003Z,208.13
2018-08-03T15:33:55.984Z,208.13
2018-08-03T15:35:49.324Z,202.50
2018-08-03T15:36:49.328Z,208.13
2018-08-03T15:38:42.164Z,213.75
2018-08-03T15:39:42.124Z,219.38
2018-08-03T15:41:34.982Z,225.00
2018-08-03T15:42:34.954Z,225.00
2018-08-03T15:44:27.821Z,225.00
2018-08-03T15:45:27.777Z,225.00
2018-08-03T15:47:20.661Z,225.00
2018-08-03T15:48:20.604Z,225.00
2018-08-03T15:50:13.466Z,219.38
2018-08-03T15:51:13.459Z,213.75
2018-08-03T15:53:06.296Z,219.38
2018-08-03T15:54:06.264Z,213.75
2018-08-03T15:55:59.141Z,208.13
2018-08-03T15:56:59.089Z,208.13
2018-08-03T15:58:51.941Z,208.13
2018-08-03T15:59:51.911Z,208.13
2018-08-03T16:01:44.779Z,213.75
2018-08-03T16:02:44.750Z,213.75
2018-08-03T16:04:37.620Z,208.13
2018-08-03T16:05:37.566Z,213.75
2018-08-03T16:07:30.907Z,202.50
2018-08-03T16:08:30.886Z,196.88
2018-08-03T16:10:23.746Z,191.25
2018-08-03T16:11:23.716Z,191.25
2018-08-03T16:13:17.055Z,185.63
2018-08-03T16:14:17.027Z,180.00
2018-08-03T16:16:09.991Z,180.00
2018-08-03T16:17:09.862Z,174.38
2018-08-03T16:19:02.708Z,174.38
2018-08-03T16:20:02.691Z,180.00
2018-08-03T16:21:55.546Z,174.38
2018-08-03T16:22:55.509Z,168.75
2018-08-03T16:24:48.367Z,163.13
2018-08-03T16:25:48.343Z,163.13
2018-08-03T16:27:41.176Z,163.13
2018-08-03T16:28:41.157Z,163.13
2018-08-03T16:30:34.070Z,163.13
2018-08-03T16:31:33.981Z,163.13
2018-08-03T16:33:26.829Z,157.50
2018-08-03T16:34:26.797Z,151.88
2018-08-03T16:36:20.153Z,146.25
2018-08-03T16:37:20.120Z,146.25
2018-08-03T16:39:12.957Z,146.25
2018-08-03T16:40:12.936Z,140.63
2018-08-03T16:42:05.797Z,140.63
2018-08-03T16:43:05.756Z,140.63
2018-08-03T16:44:58.626Z,135.00
2018-08-03T16:45:58.591Z,129.38
2018-08-03T16:47:51.422Z,135.00
2018-08-03T16:48:51.396Z,129.38
2018-08-03T16:50:44.252Z,118.13
2018-08-03T16:51:44.216Z,118.13
2018-08-03T16:53:37.547Z,118.13
2018-08-03T16:54:37.543Z,118.13
2018-08-03T16:56:30.383Z,112.50
2018-08-03T16:57:30.358Z,112.50
2018-08-03T16:59:23.203Z,106.88
2018-08-03T17:00:23.193Z,106.88
2018-08-03T17:02:16.055Z,101.25
2018-08-03T17:03:16.000Z,95.63
2018-08-03T17:05:08.858Z,95.63
2018-08-03T17:06:08.828Z,95.63
2018-08-03T17:08:01.701Z,84.38
2018-08-03T17:09:01.638Z,84.38
2018-08-03T17:10:54.473Z,78.75
2018-08-03T17:11:54.454Z,78.75
2018-08-03T17:13:47.314Z,78.75
2018-08-03T17:14:47.283Z,73.13
2018-08-03T17:16:40.127Z,73.13
2018-08-03T17:17:40.082Z,73.13
2018-08-03T17:19:33.431Z,67.50
2018-08-03T17:20:33.429Z,61.88
2018-08-03T17:22:26.257Z,61.88
2018-08-03T17:23:26.225Z,61.88
2018-08-03T17:25:19.052Z,61.88
2018-08-03T17:26:19.042Z,61.88
2018-08-03T17:28:11.907Z,56.25
2018-08-03T17:29:11.847Z,56.25
2018-08-03T17:31:04.704Z,50.63
2018-08-03T17:32:04.667Z,50.63
2018-08-03T17:33:57.518Z,50.63
2018-08-03T17:34:57.483Z,50.63
2018-08-03T17:36:50.344Z,50.63
2018-08-03T17:37:50.280Z,50.63
2018-08-03T17:39:43.137Z,50.63
2018-08-03T17:40:43.085Z,45.00
2018-08-03T17:42:36.038Z,45.00
2018-08-03T17:43:35.913Z,45.00
2018-08-03T17:45:29.304Z,33.75
2018-08-03T17:46:29.247Z,33.75
2018-08-03T17:48:22.069Z,28.13
2018-08-03T17:49:22.045Z,22.50
2018-08-03T17:51:14.870Z,28.13
2018-08-03T17:52:14.856Z,28.13
2018-08-03T17:54:07.695Z,28.13
2018-08-03T17:55:07.658Z,33.75
2018-08-03T17:57:00.624Z,28.13
2018-08-03T17:58:00.473Z,28.13
2018-08-03T17:59:53.310Z,22.50
2018-08-03T18:00:53.275Z,22.50
2018-08-03T18:02:46.148Z,22.50
2018-08-03T18:03:46.101Z,22.50
2018-08-03T18:05:38.915Z,22.50
2018-08-03T18:06:38.892Z,22.50
2018-08-03T18:08:31.734Z,22.50
2018-08-03T18:09:31.746Z,22.50
2018-08-03T18:11:24.531Z,22.50
2018-08-03T18:12:24.514Z,22.50
2018-08-03T18:14:17.365Z,22.50
2018-08-03T18:15:17.313Z,22.50
2018-08-03T18:17:10.146Z,22.50
2018-08-03T18:18:10.121Z,22.50
2018-08-03T18:20:03.006Z,22.50
2018-08-03T18:21:02.925Z,16.88
2018-08-03T18:22:55.755Z,16.88
2018-08-03T18:23:55.732Z,16.88
2018-08-03T18:25:48.579Z,16.88
2018-08-03T18:26:48.545Z,16.88
2018-08-03T18:28:41.892Z,16.88